sensor_id;sensor_type;location;lat;lon;timestamp;pressure;altitude;pressure_sealevel;temperature;humidity
80869;BME280;70295;40.182;44.498;2023-07-09T00:00:30;89372.2;;;25.27;40.53437
80869;BME280;70295;40.182;44.498;2023-07-09T00:02:30;89373.23;;;25.26;40.61445
80869;BME280;70295;40.182;44.498;2023-07-09T00:04:30;89379.07;;;25.23;40.64668
80869;BME280;70295;40.182;44.498;2023-07-09T00:06:30;89380.31;;;25.22;40.71406
80869;BME280;70295;40.182;44.498;2023-07-09T00:08:30;89380.7;;;25.19;40.78047
80869;BME280;70295;40.182;44.498;2023-07-09T00:10:30;89379.73;;;25.14;40.93476
80869;BME280;70295;40.182;44.498;2023-07-09T00:12:30;89377.44;;;25.09;41.05684
80869;BME280;70295;40.182;44.498;2023-07-09T00:14:30;89376.73;;;25.04;41.15547
80869;BME280;70295;40.182;44.498;2023-07-09T00:16:30;89377.03;;;25.03;41.18769
80869;BME280;70295;40.182;44.498;2023-07-09T00:18:30;89376.94;;;25.02;41.24434
80869;BME280;70295;40.182;44.498;2023-07-09T00:20:30;89380.23;;;25.01;41.29023
80869;BME280;70295;40.182;44.498;2023-07-09T00:22:30;89377.3;;;24.99;41.3332
80869;BME280;70295;40.182;44.498;2023-07-09T00:24:30;89378.31;;;24.98;41.4123
80869;BME280;70295;40.182;44.498;2023-07-09T00:26:35;89375.54;;;24.94;41.52363
80869;BME280;70295;40.182;44.498;2023-07-09T00:28:30;89380.77;;;24.93;41.55684
80869;BME280;70295;40.182;44.498;2023-07-09T00:30:30;89380.69;;;24.91;41.6125
80869;BME280;70295;40.182;44.498;2023-07-09T00:32:30;89381.67;;;24.91;41.58906
80869;BME280;70295;40.182;44.498;2023-07-09T00:34:30;89387.48;;;24.89;41.64375
80869;BME280;70295;40.182;44.498;2023-07-09T00:36:30;89388.18;;;24.85;41.7668
80869;BME280;70295;40.182;44.498;2023-07-09T00:38:30;89386.89;;;24.81;41.99141
80869;BME280;70295;40.182;44.498;2023-07-09T00:40:30;89389.8;;;24.79;42.09199
80869;BME280;70295;40.182;44.498;2023-07-09T00:42:30;89390.2;;;24.76;42.21601
80869;BME280;70295;40.182;44.498;2023-07-09T00:44:31;89390.7;;;24.72;42.31465
80869;BME280;70295;40.182;44.498;2023-07-09T00:48:30;89393.98;;;24.68;42.46016
80869;BME280;70295;40.182;44.498;2023-07-09T00:56:35;89396.68;;;24.57;42.78047
80869;BME280;70295;40.182;44.498;2023-07-09T00:58:30;89397.03;;;24.55;42.85762
80869;BME280;70295;40.182;44.498;2023-07-09T01:02:30;89399.47;;;24.53;42.99336
80869;BME280;70295;40.182;44.498;2023-07-09T01:04:30;89401.89;;;24.52;43.0041
80869;BME280;70295;40.182;44.498;2023-07-09T01:08:30;89405.3;;;24.48;43.03437
80869;BME280;70295;40.182;44.498;2023-07-09T01:10:30;89404.59;;;24.48;43.05586
80869;BME280;70295;40.182;44.498;2023-07-09T01:12:30;89405.13;;;24.48;43.13594
80869;BME280;70295;40.182;44.498;2023-07-09T01:14:30;89403.3;;;24.46;43.12324
80869;BME280;70295;40.182;44.498;2023-07-09T01:18:30;89405.69;;;24.45;43.0998
80869;BME280;70295;40.182;44.498;2023-07-09T01:20:30;89414.17;;;24.46;43.10078
80869;BME280;70295;40.182;44.498;2023-07-09T01:22:30;89416.42;;;24.45;43.13398
80869;BME280;70295;40.182;44.498;2023-07-09T01:26:30;89412.95;;;24.43;43.06367
80869;BME280;70295;40.182;44.498;2023-07-09T01:28:30;89415.9;;;24.43;42.97187
80869;BME280;70295;40.182;44.498;2023-07-09T01:30:31;89418.84;;;24.43;42.97187
80869;BME280;70295;40.182;44.498;2023-07-09T01:32:30;89416.16;;;24.42;43.00508
80869;BME280;70295;40.182;44.498;2023-07-09T01:34:30;89417.24;;;24.42;43.04023
80869;BME280;70295;40.182;44.498;2023-07-09T01:36:30;89419.08;;;24.42;43.03926
80869;BME280;70295;40.182;44.498;2023-07-09T01:38:30;89419.72;;;24.41;43.11836
80869;BME280;70295;40.182;44.498;2023-07-09T01:40:30;89425.67;;;24.39;43.16328
80869;BME280;70295;40.182;44.498;2023-07-09T01:42:30;89423.95;;;24.38;43.11543
80869;BME280;70295;40.182;44.498;2023-07-09T01:44:30;89424.59;;;24.37;43.10371
80869;BME280;70295;40.182;44.498;2023-07-09T01:46:30;89426.61;;;24.37;43.0793
80869;BME280;70295;40.182;44.498;2023-07-09T01:48:30;89424.3;;;24.36;43.05586
80869;BME280;70295;40.182;44.498;2023-07-09T01:50:30;89423.94;;;24.36;43.06758
80869;BME280;70295;40.182;44.498;2023-07-09T01:52:31;89427.05;;;24.38;43.04707
80869;BME280;70295;40.182;44.498;2023-07-09T01:54:30;89428.5;;;24.38;43.14961
80869;BME280;70295;40.182;44.498;2023-07-09T01:56:30;89428.52;;;24.38;43.20723
80869;BME280;70295;40.182;44.498;2023-07-09T01:58:30;89433.17;;;24.39;43.14961
80869;BME280;70295;40.182;44.498;2023-07-09T02:00:30;89432.77;;;24.39;43.16328
80869;BME280;70295;40.182;44.498;2023-07-09T02:02:30;89433.53;;;24.39;43.26387
80869;BME280;70295;40.182;44.498;2023-07-09T02:04:30;89432.45;;;24.39;43.21894
80869;BME280;70295;40.182;44.498;2023-07-09T02:06:30;89429.34;;;24.39;43.18574
80869;BME280;70295;40.182;44.498;2023-07-09T02:08:30;89431.88;;;24.39;43.12812
80869;BME280;70295;40.182;44.498;2023-07-09T02:10:30;89430.27;;;24.38;43.07051
80869;BME280;70295;40.182;44.498;2023-07-09T02:12:30;89434.98;;;24.39;43.09394
80869;BME280;70295;40.182;44.498;2023-07-09T02:14:30;89437.69;;;24.39;43.11641
80869;BME280;70295;40.182;44.498;2023-07-09T02:16:30;89441.68;;;24.39;43.20918
80869;BME280;70295;40.182;44.498;2023-07-09T02:18:30;89443.73;;;24.38;43.29902
80869;BME280;70295;40.182;44.498;2023-07-09T02:20:30;89444.65;;;24.38;43.29902
80869;BME280;70295;40.182;44.498;2023-07-09T02:22:30;89440.23;;;24.39;43.33418
80869;BME280;70295;40.182;44.498;2023-07-09T02:24:30;89448.19;;;24.4;43.3459
80869;BME280;70295;40.182;44.498;2023-07-09T02:26:30;89447.08;;;24.42;43.40644
80869;BME280;70295;40.182;44.498;2023-07-09T02:28:30;89447.61;;;24.45;43.59101
80869;BME280;70295;40.182;44.498;2023-07-09T02:30:30;89444.05;;;24.44;43.4416
80869;BME280;70295;40.182;44.498;2023-07-09T02:32:30;89440.27;;;24.43;43.46309
80869;BME280;70295;40.182;44.498;2023-07-09T02:34:30;89439.41;;;24.45;43.36348
80869;BME280;70295;40.182;44.498;2023-07-09T02:36:30;89437.73;;;24.45;43.1916
80869;BME280;70295;40.182;44.498;2023-07-09T02:38:30;89439.83;;;24.44;43.32734
80869;BME280;70295;40.182;44.498;2023-07-09T02:40:30;89437.36;;;24.45;43.47773
80869;BME280;70295;40.182;44.498;2023-07-09T02:42:30;89438.44;;;24.48;43.50215
80869;BME280;70295;40.182;44.498;2023-07-09T02:44:30;89440.45;;;24.5;43.43574
80869;BME280;70295;40.182;44.498;2023-07-09T02:46:30;89440.83;;;24.52;43.50605
80869;BME280;70295;40.182;44.498;2023-07-09T02:48:30;89440.27;;;24.54;43.55488
80869;BME280;70295;40.182;44.498;2023-07-09T02:50:30;89440.19;;;24.57;43.56953
80869;BME280;70295;40.182;44.498;2023-07-09T02:52:30;89442.5;;;24.6;43.5373
80869;BME280;70295;40.182;44.498;2023-07-09T02:54:30;89443.23;;;24.65;43.51973
80869;BME280;70295;40.182;44.498;2023-07-09T02:56:30;89445.35;;;24.7;43.53535
80869;BME280;70295;40.182;44.498;2023-07-09T02:58:30;89446.77;;;24.75;43.4709
80869;BME280;70295;40.182;44.498;2023-07-09T03:00:30;89442.7;;;24.82;43.33027
80869;BME280;70295;40.182;44.498;2023-07-09T03:02:30;89446.76;;;24.92;43.05391
80869;BME280;70295;40.182;44.498;2023-07-09T03:04:30;89446.79;;;25.05;42.80488
80869;BME280;70295;40.182;44.498;2023-07-09T03:06:31;89445.44;;;25.19;42.49726
80869;BME280;70295;40.182;44.498;2023-07-09T03:08:30;89447.51;;;25.35;42.34101
80869;BME280;70295;40.182;44.498;2023-07-09T03:10:30;89446.19;;;25.5;42.11543
80869;BME280;70295;40.182;44.498;2023-07-09T03:12:30;89446.98;;;25.64;41.78437
80869;BME280;70295;40.182;44.498;2023-07-09T03:14:30;89446.55;;;25.78;41.4416
80869;BME280;70295;40.182;44.498;2023-07-09T03:16:31;89446.97;;;25.9;41.18867
80869;BME280;70295;40.182;44.498;2023-07-09T03:18:30;89450.06;;;26.02;40.96016
80869;BME280;70295;40.182;44.498;2023-07-09T03:20:30;89448.47;;;26.14;40.68476
80869;BME280;70295;40.182;44.498;2023-07-09T03:22:30;89448.5;;;26.24;40.50996
80869;BME280;70295;40.182;44.498;2023-07-09T03:24:30;89450.08;;;26.35;40.30195
80869;BME280;70295;40.182;44.498;2023-07-09T03:26:30;89450.22;;;26.44;40.02266
80869;BME280;70295;40.182;44.498;2023-07-09T03:28:30;89453.25;;;26.55;39.82637
80869;BME280;70295;40.182;44.498;2023-07-09T03:30:30;89453.27;;;26.69;39.66621
80869;BME280;70295;40.182;44.498;2023-07-09T03:32:30;89457.31;;;26.85;39.43965
80869;BME280;70295;40.182;44.498;2023-07-09T03:34:30;89457.69;;;27.01;39.18867
80869;BME280;70295;40.182;44.498;2023-07-09T03:36:30;89459.4;;;27.18;38.88105
80869;BME280;70295;40.182;44.498;2023-07-09T03:38:30;89464.71;;;27.33;38.71113
80869;BME280;70295;40.182;44.498;2023-07-09T03:40:30;89466.84;;;27.48;38.30976
80869;BME280;70295;40.182;44.498;2023-07-09T03:42:30;89465.86;;;27.63;38.04609
80869;BME280;70295;40.182;44.498;2023-07-09T03:44:30;89462.4;;;27.76;37.73457
80869;BME280;70295;40.182;44.498;2023-07-09T03:46:30;89461.63;;;27.86;37.56953
80869;BME280;70295;40.182;44.498;2023-07-09T03:48:30;89463.59;;;28;37.2248
80869;BME280;70295;40.182;44.498;2023-07-09T03:50:30;89461.22;;;28.15;37.00605
80869;BME280;70295;40.182;44.498;2023-07-09T03:52:30;89462.2;;;28.3;36.76484
80869;BME280;70295;40.182;44.498;2023-07-09T03:54:30;89460.13;;;28.44;36.59199
80869;BME280;70295;40.182;44.498;2023-07-09T03:56:30;89463.08;;;28.61;36.22383
80869;BME280;70295;40.182;44.498;2023-07-09T03:58:30;89460.42;;;28.73;36.00312
80869;BME280;70295;40.182;44.498;2023-07-09T04:00:30;89459.15;;;28.86;35.62031
80869;BME280;70295;40.182;44.498;2023-07-09T04:02:30;89458.91;;;28.95;35.24629
80869;BME280;70295;40.182;44.498;2023-07-09T04:04:30;89458.19;;;28.99;35.05293
80869;BME280;70295;40.182;44.498;2023-07-09T04:06:30;89456.19;;;28.97;34.87812
80869;BME280;70295;40.182;44.498;2023-07-09T04:08:30;89458.45;;;28.95;34.8293
80869;BME280;70295;40.182;44.498;2023-07-09T04:10:30;89456.6;;;28.84;35.0168
80869;BME280;70295;40.182;44.498;2023-07-09T04:12:30;89449.24;;;28.75;35.19453
80869;BME280;70295;40.182;44.498;2023-07-09T04:14:30;89455.44;;;28.75;35.84297
80869;BME280;70295;40.182;44.498;2023-07-09T04:16:30;89456.43;;;28.93;35.74141
80869;BME280;70295;40.182;44.498;2023-07-09T04:18:30;89456.71;;;29.11;35.53633
80869;BME280;70295;40.182;44.498;2023-07-09T04:20:30;89458.64;;;29.26;35.37519
80869;BME280;70295;40.182;44.498;2023-07-09T04:22:30;89454.79;;;29.37;35.15254
80869;BME280;70295;40.182;44.498;2023-07-09T04:24:30;89454.36;;;29.45;34.83516
80869;BME280;70295;40.182;44.498;2023-07-09T04:26:30;89451.68;;;29.44;34.7873
80869;BME280;70295;40.182;44.498;2023-07-09T04:28:30;89449.92;;;29.49;34.8498
80869;BME280;70295;40.182;44.498;2023-07-09T04:30:30;89452.28;;;29.58;34.70625
80869;BME280;70295;40.182;44.498;2023-07-09T04:32:30;89451.51;;;29.68;34.60859
80869;BME280;70295;40.182;44.498;2023-07-09T04:34:30;89453.53;;;29.77;34.36152
80869;BME280;70295;40.182;44.498;2023-07-09T04:36:30;89454.09;;;29.85;34.18281
80869;BME280;70295;40.182;44.498;2023-07-09T04:38:30;89457.09;;;29.94;34.10762
80869;BME280;70295;40.182;44.498;2023-07-09T04:40:30;89452.29;;;30.03;33.94062
80869;BME280;70295;40.182;44.498;2023-07-09T04:42:30;89457.63;;;30.12;33.84297
80869;BME280;70295;40.182;44.498;2023-07-09T04:44:30;89460.3;;;30.18;33.71992
80869;BME280;70295;40.182;44.498;2023-07-09T04:46:30;89459.64;;;30.21;33.71113
80869;BME280;70295;40.182;44.498;2023-07-09T04:48:30;89459.19;;;30.3;33.67207
80869;BME280;70295;40.182;44.498;2023-07-09T04:50:30;89455.25;;;30.42;33.43672
80869;BME280;70295;40.182;44.498;2023-07-09T04:52:30;89459.56;;;30.48;33.30195
80869;BME280;70295;40.182;44.498;2023-07-09T04:54:30;89459.14;;;30.54;33.29414
80869;BME280;70295;40.182;44.498;2023-07-09T04:56:30;89461.89;;;30.61;33.14961
80869;BME280;70295;40.182;44.498;2023-07-09T04:58:30;89458.28;;;30.71;32.9709
80869;BME280;70295;40.182;44.498;2023-07-09T05:00:30;89459.05;;;30.83;32.6418
80869;BME280;70295;40.182;44.498;2023-07-09T05:02:30;89459.77;;;30.91;32.55586
80869;BME280;70295;40.182;44.498;2023-07-09T05:04:30;89459.2;;;31;32.44551
80869;BME280;70295;40.182;44.498;2023-07-09T05:06:30;89458.2;;;31.09;32.29023
80869;BME280;70295;40.182;44.498;2023-07-09T05:08:30;89460.38;;;31.2;32.08809
80869;BME280;70295;40.182;44.498;2023-07-09T05:10:30;89458.51;;;31.29;31.89766
80869;BME280;70295;40.182;44.498;2023-07-09T05:12:30;89461.47;;;31.39;31.83516
80869;BME280;70295;40.182;44.498;2023-07-09T05:14:30;89459.95;;;31.48;31.57246
80869;BME280;70295;40.182;44.498;2023-07-09T05:16:30;89456.42;;;31.57;31.48652
80869;BME280;70295;40.182;44.498;2023-07-09T05:18:30;89458.95;;;31.65;31.34101
80869;BME280;70295;40.182;44.498;2023-07-09T05:20:30;89461.47;;;31.73;31.18379
80869;BME280;70295;40.182;44.498;2023-07-09T05:22:30;89458.54;;;31.78;30.88398
80869;BME280;70295;40.182;44.498;2023-07-09T05:24:30;89458.8;;;31.82;30.78242
80869;BME280;70295;40.182;44.498;2023-07-09T05:26:30;89456.2;;;31.94;30.67305
80869;BME280;70295;40.182;44.498;2023-07-09T05:28:30;89457.17;;;32.05;30.6457
80869;BME280;70295;40.182;44.498;2023-07-09T05:30:30;89451.41;;;32.17;30.49141
80869;BME280;70295;40.182;44.498;2023-07-09T05:32:30;89453.31;;;32.22;30.31953
80869;BME280;70295;40.182;44.498;2023-07-09T05:34:30;89450.84;;;32.22;30.05098
80869;BME280;70295;40.182;44.498;2023-07-09T05:36:30;89447.27;;;32.13;30.10371
80869;BME280;70295;40.182;44.498;2023-07-09T05:38:30;89445.05;;;32.03;30.31855
80869;BME280;70295;40.182;44.498;2023-07-09T05:40:30;89446.69;;;32.12;30.40644
80869;BME280;70295;40.182;44.498;2023-07-09T05:42:30;89441.83;;;32.24;30.18086
80869;BME280;70295;40.182;44.498;2023-07-09T05:44:30;89444.89;;;32.33;30.10566
80869;BME280;70295;40.182;44.498;2023-07-09T05:46:33;89440.75;;;32.48;29.97578
80869;BME280;70295;40.182;44.498;2023-07-09T05:48:30;89438.05;;;32.65;29.78926
80869;BME280;70295;40.182;44.498;2023-07-09T05:50:32;89435.47;;;32.79;29.55293
80869;BME280;70295;40.182;44.498;2023-07-09T05:52:30;89436.08;;;32.83;29.3918
80869;BME280;70295;40.182;44.498;2023-07-09T05:54:30;89433.58;;;32.89;29.32539
80869;BME280;70295;40.182;44.498;2023-07-09T05:56:30;89430.13;;;32.99;29.19258
80869;BME280;70295;40.182;44.498;2023-07-09T05:58:30;89429.84;;;33.05;29.14961
80869;BME280;70295;40.182;44.498;2023-07-09T06:00:30;89430.02;;;33.1;29.04805
80869;BME280;70295;40.182;44.498;2023-07-09T06:02:30;89426.38;;;33.18;29.06465
80869;BME280;70295;40.182;44.498;2023-07-09T06:04:30;89428.96;;;33.26;29.05781
80869;BME280;70295;40.182;44.498;2023-07-09T06:06:30;89427.57;;;33.35;28.70039
80869;BME280;70295;40.182;44.498;2023-07-09T06:08:30;89426.8;;;33.4;28.44648
80869;BME280;70295;40.182;44.498;2023-07-09T06:10:30;89428.43;;;33.34;28.16133
80869;BME280;70295;40.182;44.498;2023-07-09T06:12:30;89426.52;;;33.16;28.4543
80869;BME280;70295;40.182;44.498;2023-07-09T06:14:30;89424.47;;;32.96;28.67598
80869;BME280;70295;40.182;44.498;2023-07-09T06:16:30;89425.42;;;32.87;28.8459
80869;BME280;70295;40.182;44.498;2023-07-09T06:18:30;89421.15;;;32.96;28.89766
80869;BME280;70295;40.182;44.498;2023-07-09T06:20:30;89427.48;;;32.98;28.91133
80869;BME280;70295;40.182;44.498;2023-07-09T06:22:30;89426.7;;;33.05;28.5998
80869;BME280;70295;40.182;44.498;2023-07-09T06:24:30;89420.51;;;33.03;28.42305
80869;BME280;70295;40.182;44.498;2023-07-09T06:26:30;89424.56;;;33.06;28.61152
80869;BME280;70295;40.182;44.498;2023-07-09T06:28:30;89423.76;;;33.19;28.56269
80869;BME280;70295;40.182;44.498;2023-07-09T06:30:29;89414.8;;;33.32;28.37129
80869;BME280;70295;40.182;44.498;2023-07-09T06:32:30;89409.16;;;33.4;28.24824
80869;BME280;70295;40.182;44.498;2023-07-09T06:34:30;89414.16;;;33.5;28.05488
80869;BME280;70295;40.182;44.498;2023-07-09T06:36:30;89417.72;;;33.57;27.86055
80869;BME280;70295;40.182;44.498;2023-07-09T06:38:30;89412.69;;;33.58;27.62715
80869;BME280;70295;40.182;44.498;2023-07-09T06:40:30;89412.26;;;33.57;27.77754
80869;BME280;70295;40.182;44.498;2023-07-09T06:42:30;89412.84;;;33.64;27.93574
80869;BME280;70295;40.182;44.498;2023-07-09T06:44:29;89409.08;;;33.74;27.92988
80869;BME280;70295;40.182;44.498;2023-07-09T06:46:30;89407.04;;;33.85;27.65547
80869;BME280;70295;40.182;44.498;2023-07-09T06:48:30;89410.92;;;33.93;27.36738
80869;BME280;70295;40.182;44.498;2023-07-09T06:50:32;89406.81;;;33.92;27.35469
80869;BME280;70295;40.182;44.498;2023-07-09T06:52:30;89401.08;;;33.93;27.43769
80869;BME280;70295;40.182;44.498;2023-07-09T06:54:30;89410.03;;;33.99;27.31269
80869;BME280;70295;40.182;44.498;2023-07-09T06:56:29;89403.7;;;34.04;27.19844
80869;BME280;70295;40.182;44.498;2023-07-09T06:58:30;89402.16;;;34.09;27.19062
80869;BME280;70295;40.182;44.498;2023-07-09T07:00:29;89397.8;;;33.94;27.18086
80869;BME280;70295;40.182;44.498;2023-07-09T07:02:30;89399.02;;;33.86;27.15156
80869;BME280;70295;40.182;44.498;2023-07-09T07:04:30;89394.05;;;33.75;27.30976
80869;BME280;70295;40.182;44.498;2023-07-09T07:06:30;89384.37;;;33.69;27.43476
80869;BME280;70295;40.182;44.498;2023-07-09T07:08:29;89384.22;;;33.63;27.66426
80869;BME280;70295;40.182;44.498;2023-07-09T07:10:30;89385.77;;;33.65;27.54902
80869;BME280;70295;40.182;44.498;2023-07-09T07:12:29;89376.37;;;33.59;27.56855
80869;BME280;70295;40.182;44.498;2023-07-09T07:14:29;89378.91;;;33.59;27.55684
80869;BME280;70295;40.182;44.498;2023-07-09T07:16:30;89379.21;;;33.66;27.25703
80869;BME280;70295;40.182;44.498;2023-07-09T07:18:30;89372.64;;;33.65;27.38496
80869;BME280;70295;40.182;44.498;2023-07-09T07:20:30;89370.89;;;33.6;27.38203
80869;BME280;70295;40.182;44.498;2023-07-09T07:22:29;89374.02;;;33.61;27.54707
80869;BME280;70295;40.182;44.498;2023-07-09T07:24:29;89373.02;;;33.61;27.33516
80869;BME280;70295;40.182;44.498;2023-07-09T07:26:29;89368.38;;;33.56;27.3332
80869;BME280;70295;40.182;44.498;2023-07-09T07:28:30;89371.33;;;33.56;27.18086
80869;BME280;70295;40.182;44.498;2023-07-09T07:30:30;89367.09;;;33.53;27.33125
80869;BME280;70295;40.182;44.498;2023-07-09T07:32:30;89368;;;33.51;27.59883
80869;BME280;70295;40.182;44.498;2023-07-09T07:34:30;89364.68;;;33.51;27.46992
80869;BME280;70295;40.182;44.498;2023-07-09T07:36:30;89358.11;;;33.51;27.38887
80869;BME280;70295;40.182;44.498;2023-07-09T07:38:29;89354.39;;;33.51;27.7043
80869;BME280;70295;40.182;44.498;2023-07-09T07:40:29;89349.48;;;33.55;27.66035
80869;BME280;70295;40.182;44.498;2023-07-09T07:42:30;89346.08;;;33.57;27.5793
80869;BME280;70295;40.182;44.498;2023-07-09T07:44:29;89343.77;;;33.58;27.5334
80869;BME280;70295;40.182;44.498;2023-07-09T07:46:30;89344.23;;;33.57;27.49726
80869;BME280;70295;40.182;44.498;2023-07-09T07:48:30;89339.53;;;33.57;27.51973
80869;BME280;70295;40.182;44.498;2023-07-09T07:50:29;89338.47;;;33.61;27.33613
80869;BME280;70295;40.182;44.498;2023-07-09T07:52:30;89337.95;;;33.62;27.27851
80869;BME280;70295;40.182;44.498;2023-07-09T07:54:30;89330.75;;;33.62;27.2082
80869;BME280;70295;40.182;44.498;2023-07-09T07:56:29;89332.88;;;33.58;27.26387
80869;BME280;70295;40.182;44.498;2023-07-09T07:58:30;89326.3;;;33.5;27.21211
80869;BME280;70295;40.182;44.498;2023-07-09T08:00:30;89331.16;;;33.31;27.05879
80869;BME280;70295;40.182;44.498;2023-07-09T08:02:30;89329.58;;;33.14;27.30684
80869;BME280;70295;40.182;44.498;2023-07-09T08:04:30;89321.73;;;32.94;27.65644
80869;BME280;70295;40.182;44.498;2023-07-09T08:06:29;89316.81;;;32.89;27.87519
80869;BME280;70295;40.182;44.498;2023-07-09T08:08:29;89317.67;;;32.86;27.92109
80869;BME280;70295;40.182;44.498;2023-07-09T08:10:29;89309.33;;;32.87;27.94453
80869;BME280;70295;40.182;44.498;2023-07-09T08:12:29;89310.23;;;32.92;27.9709
80869;BME280;70295;40.182;44.498;2023-07-09T08:14:29;89307.68;;;32.96;27.88008
80869;BME280;70295;40.182;44.498;2023-07-09T08:16:30;89308.23;;;33.03;27.96601
80869;BME280;70295;40.182;44.498;2023-07-09T08:18:29;89298.11;;;33.09;27.73555
80869;BME280;70295;40.182;44.498;2023-07-09T08:20:30;89300.92;;;33.1;27.75996
80869;BME280;70295;40.182;44.498;2023-07-09T08:22:29;89289.08;;;33.12;27.79707
80869;BME280;70295;40.182;44.498;2023-07-09T08:24:29;89289.73;;;33.16;27.92793
80869;BME280;70295;40.182;44.498;2023-07-09T08:26:29;89297.98;;;33.21;27.74434
80869;BME280;70295;40.182;44.498;2023-07-09T08:28:30;89294.87;;;33.22;27.60469
80869;BME280;70295;40.182;44.498;2023-07-09T08:30:30;89290.05;;;33.26;27.50117
80869;BME280;70295;40.182;44.498;2023-07-09T08:32:29;89281.44;;;33.24;27.60566
80869;BME280;70295;40.182;44.498;2023-07-09T08:34:30;89281.28;;;33.23;27.80391
80869;BME280;70295;40.182;44.498;2023-07-09T08:36:29;89276.42;;;33.21;27.74336
80869;BME280;70295;40.182;44.498;2023-07-09T08:38:29;89273.88;;;33.19;27.70723
80869;BME280;70295;40.182;44.498;2023-07-09T08:40:29;89275.84;;;33.13;27.82148
80869;BME280;70295;40.182;44.498;2023-07-09T08:42:31;89277.63;;;33.12;28.01875
80869;BME280;70295;40.182;44.498;2023-07-09T08:46:33;89269.13;;;33.15;27.99824
80869;BME280;70295;40.182;44.498;2023-07-09T08:48:35;89267.38;;;33.14;27.8332
80869;BME280;70295;40.182;44.498;2023-07-09T08:54:31;89257.3;;;33.09;27.96992
80869;BME280;70295;40.182;44.498;2023-07-09T08:56:32;89261.2;;;33.09;27.94746
80869;BME280;70295;40.182;44.498;2023-07-09T08:58:30;89257.82;;;33.06;27.85176
80869;BME280;70295;40.182;44.498;2023-07-09T09:00:31;89253.83;;;32.98;27.9748
80869;BME280;70295;40.182;44.498;2023-07-09T09:02:31;89249.3;;;32.99;28.31465
80869;BME280;70295;40.182;44.498;2023-07-09T09:04:31;89246.42;;;33.04;28.2834
80869;BME280;70295;40.182;44.498;2023-07-09T09:06:30;89240.66;;;33.05;28.17891
80869;BME280;70295;40.182;44.498;2023-07-09T09:10:33;89236.36;;;33.05;28.38887
80869;BME280;70295;40.182;44.498;2023-07-09T09:12:31;89231.65;;;33.08;28.34394
80869;BME280;70295;40.182;44.498;2023-07-09T09:16:31;89219.77;;;33.05;28.36543
80869;BME280;70295;40.182;44.498;2023-07-09T09:18:31;89218.88;;;33.06;28.53047
80869;BME280;70295;40.182;44.498;2023-07-09T09:20:29;89222.61;;;33.05;28.33027
80869;BME280;70295;40.182;44.498;2023-07-09T09:26:31;89219.17;;;32.95;28.47578
80869;BME280;70295;40.182;44.498;2023-07-09T09:28:29;89215.13;;;32.98;28.55976
80869;BME280;70295;40.182;44.498;2023-07-09T09:30:30;89211.42;;;33.01;28.52656
80869;BME280;70295;40.182;44.498;2023-07-09T09:32:31;89208.16;;;33.02;28.41035
80869;BME280;70295;40.182;44.498;2023-07-09T09:34:30;89205.77;;;33.02;28.34004
80869;BME280;70295;40.182;44.498;2023-07-09T09:36:29;89194.97;;;32.9;28.27461
80869;BME280;70295;40.182;44.498;2023-07-09T09:38:29;89185.8;;;32.76;28.40547
80869;BME280;70295;40.182;44.498;2023-07-09T09:40:33;89198.08;;;32.67;28.80879
80869;BME280;70295;40.182;44.498;2023-07-09T09:42:29;89194.89;;;32.71;28.96309
80869;BME280;70295;40.182;44.498;2023-07-09T09:44:30;89190.52;;;32.78;28.75801
80869;BME280;70295;40.182;44.498;2023-07-09T09:46:31;89188.35;;;32.82;28.71309
80869;BME280;70295;40.182;44.498;2023-07-09T09:48:30;89179.47;;;32.84;28.76094
80869;BME280;70295;40.182;44.498;2023-07-09T09:50:31;89181.5;;;32.89;28.95137
80869;BME280;70295;40.182;44.498;2023-07-09T09:52:30;89178.73;;;32.92;28.83613
80869;BME280;70295;40.182;44.498;2023-07-09T09:54:29;89178.04;;;32.88;28.49531
80869;BME280;70295;40.182;44.498;2023-07-09T09:56:30;89172.05;;;32.85;28.43476
80869;BME280;70295;40.182;44.498;2023-07-09T09:58:29;89173.08;;;32.82;28.79512
80869;BME280;70295;40.182;44.498;2023-07-09T10:00:29;89166.13;;;32.83;28.62031
80869;BME280;70295;40.182;44.498;2023-07-09T10:02:29;89166.13;;;32.83;28.71406
80869;BME280;70295;40.182;44.498;2023-07-09T10:04:29;89162.34;;;32.83;28.84199
80869;BME280;70295;40.182;44.498;2023-07-09T10:10:30;89157.94;;;32.63;28.09394
80869;BME280;70295;40.182;44.498;2023-07-09T10:14:31;89151.09;;;32.68;28.55195
80869;BME280;70295;40.182;44.498;2023-07-09T10:16:32;89147.67;;;32.66;28.57441
80869;BME280;70295;40.182;44.498;2023-07-09T10:26:30;89147.56;;;32.56;28.74336
80869;BME280;70295;40.182;44.498;2023-07-09T10:28:33;89142.97;;;32.57;28.77949
80869;BME280;70295;40.182;44.498;2023-07-09T10:46:31;89119.22;;;32.82;28.31562
80869;BME280;70295;40.182;44.498;2023-07-09T10:48:32;89111.99;;;32.84;28.23555
80869;BME280;70295;40.182;44.498;2023-07-09T10:52:32;89108.75;;;32.79;28.15059
80869;BME280;70295;40.182;44.498;2023-07-09T10:54:31;89104.66;;;32.78;28.09101
80869;BME280;70295;40.182;44.498;2023-07-09T10:56:31;89097.78;;;32.77;28.07832
80869;BME280;70295;40.182;44.498;2023-07-09T11:02:30;89089.75;;;32.74;28.17109
80869;BME280;70295;40.182;44.498;2023-07-09T11:06:34;89089.33;;;32.75;28.10078
80869;BME280;70295;40.182;44.498;2023-07-09T11:16:30;89069.75;;;32.77;27.75117
80869;BME280;70295;40.182;44.498;2023-07-09T11:18:31;89072.66;;;32.77;27.71601
80869;BME280;70295;40.182;44.498;2023-07-09T11:24:31;89070.86;;;32.8;27.84687